Stations météo

réclame
Mon MeteoGroup
Marknesse aws, Pays-Bas (6273): Température de l'air & dewpoint: 18.01.2018 10:00:00 - 24.01.2018 10:00:00 (CET)Marknesse aws, Pays-Bas (6273): Température de l'air 5cm & Température de l'air -5cm: 18.01.2018 10:00:00 - 24.01.2018 10:00:00 (CET)Marknesse aws, Pays-Bas (6273): Température de l'air -20cm & Température de l'air -100cm: 18.01.2018 10:00:00 - 24.01.2018 10:00:00 (CET)Marknesse aws, Pays-Bas (6273): Vitesse du vent & gusts: 18.01.2018 10:00:00 - 24.01.2018 10:00:00 (CET)Marknesse aws, Pays-Bas (6273): Direction du vent: 18.01.2018 10:00:00 - 24.01.2018 10:00:00 (CET)Marknesse aws, Pays-Bas (6273): visibility: 18.01.2018 10:00:00 - 24.01.2018 10:00:00 (CET)Marknesse aws, Pays-Bas (6273): Quantités de précipitations: 18.01.2018 10:00:00 - 24.01.2018 10:00:00 (CET)
Date & Time tt [°C] td [°C] tt 5cm [°C] tt -5cm [°C] tt -20cm [°C] tt -100cm [°C] ff [km/h] ff [knt] fx [km/h] fx [knt] dd vv [km] rr [mm]
24.01.2018 10:00:00 12,0 10,2 11,3 7,6 5,6 5,9 36 19 50 27 SSW 19 0,0
24.01.2018 09:00:00 11,6 10,2 10,8 7,4 5,5 5,9 29 16 43 23 SSW 19 0,0
24.01.2018 08:00:00 11,6 10,3 10,8 7,2 5,5 5,9 29 16 40 21 SSW 25 0,0
24.01.2018 07:00:00 11,4 9,8 10,8 7,0 5,4 5,9 25 14 40 21 SSW 19 0,0
24.01.2018 06:00:00 10,8 9,4 10,2 6,9 5,4 5,9 25 14 36 19 SSW 19 0,0
24.01.2018 05:00:00 10,4 8,7 9,6 6,9 5,3 5,9 22 12 36 19 SW 26 0,0
24.01.2018 04:00:00 10,4 8,7 9,5 6,9 5,2 5,9 22 12 40 21 SW 34 0,0
24.01.2018 03:00:00 10,6 9,0 9,9 6,9 5,1 5,9 22 12 43 23 SW 26 0,0
24.01.2018 02:00:00 11,0 9,7 10,4 6,8 5,0 5,9 22 12 40 21 SW 23 0,0
24.01.2018 01:00:00 10,7 9,7 10,1 6,6 5,0 5,9 22 12 43 23 SW 20 0,1
24.01.2018 00:00:00 10,0 9,5 9,6 6,5 4,9 5,9 22 12 36 19 SSW 2,6 0,2
23.01.2018 23:00:00 9,7 9,3 9,3 6,3 4,8 5,9 22 12 40 21 SSW 1,9 0,1
23.01.2018 22:00:00 9,6 9,1 9,2 6,1 4,7 5,9 25 14 43 23 SW 2,8 0,0
23.01.2018 21:00:00 9,1 8,6 8,7 6,0 4,7 5,9 29 16 47 25 SSW 2,7 0,1
23.01.2018 20:00:00 8,8 8,2 8,3 5,8 4,6 5,9 29 16 47 25 SSW 3,5 0,0
23.01.2018 19:00:00 8,4 7,8 8,1 5,7 4,5 5,9 29 16 47 25 S 3,0 0,1
23.01.2018 18:00:00 8,3 7,2 7,8 5,6 4,5 5,9 32 18 50 27 SSW 16 0,0
23.01.2018 17:00:00 8,1 6,7 7,6 5,5 4,4 5,9 29 16 43 23 S 16 0,1
23.01.2018 16:00:00 8,1 6,1 7,5 5,5 4,3 5,9 25 14 40 21 S 13 0,1
23.01.2018 15:00:00 8,1 6,4 7,6 5,4 4,2 5,9 18 10 36 19 S 13 0,4
23.01.2018 14:00:00 8,5 5,6 8,1 5,1 4,2 5,9 22 12 36 19 S 23 0,0
23.01.2018 13:00:00 8,0 5,0 7,8 4,8 4,1 5,9 22 12 32 18 S 22 0,0
23.01.2018 12:00:00 7,3 4,6 7,1 4,4 4,1 5,9 18 10 29 16 S 17 0,0
23.01.2018 11:00:00 6,7 4,1 6,1 4,2 4,1 5,9 18 10 29 16 S 18 0,0
23.01.2018 10:00:00 6,1 4,1 5,5 4,0 4,0 5,9 14 8 25 14 S 15 0,0
23.01.2018 09:00:00 5,4 4,0 4,9 4,0 4,0 5,9 14 8 22 12 S 12 0,0
23.01.2018 08:00:00 5,3 4,0 4,6 3,9 4,0 5,9 14 8 18 10 S 15 0,0
23.01.2018 07:00:00 5,2 4,1 4,6 4,0 4,0 5,9 11 6 18 10 SSW 14 0,0
23.01.2018 06:00:00 5,5 4,2 4,8 4,0 4,0 5,9 7 4 14 8 SW 16 0,0
23.01.2018 05:00:00 5,5 4,3 4,8 4,0 4,0 5,9 7 4 22 12 SW 15 0,0
23.01.2018 04:00:00 5,2 4,1 4,7 3,9 4,0 5,9 7 4 18 10 SW 13 0,0
23.01.2018 03:00:00 5,3 4,1 4,3 4,0 4,0 5,9 11 6 18 10 WSW 12 0,0
23.01.2018 02:00:00 5,4 4,4 4,9 4,0 4,0 5,9 11 6 18 10 WSW 11 0,0
23.01.2018 01:00:00 5,6 4,4 4,8 4,0 4,0 5,9 11 6 18 10 WSW 11 0,0
23.01.2018 00:00:00 5,0 4,0 4,3 4,1 4,0 5,9 14 8 18 10 WSW 10 0,0
22.01.2018 23:00:00 5,4 4,3 4,2 4,3 4,0 5,9 11 6 22 12 WSW 10 0,0
22.01.2018 22:00:00 6,3 4,6 5,6 4,3 4,0 5,9 14 8 22 12 W 11 0,0
22.01.2018 21:00:00 6,2 4,6 5,4 4,4 3,9 5,9 14 8 22 12 W 10 0,0
22.01.2018 20:00:00 6,0 4,5 5,4 4,4 3,9 5,9 14 8 25 14 W 10 0,0
22.01.2018 19:00:00 6,3 4,6 5,7 4,5 3,8 5,9 18 10 29 16 W 10 0,0
22.01.2018 18:00:00 6,4 4,6 5,6 4,6 3,8 5,9 14 8 25 14 W 11 0,0
22.01.2018 17:00:00 6,6 4,8 5,9 4,7 3,7 5,9 11 6 25 14 W 11 0,0
22.01.2018 16:00:00 7,0 5,0 6,5 4,7 3,6 5,9 14 8 22 12 W 11 0,0
22.01.2018 15:00:00 7,0 5,2 6,8 4,6 3,5 5,9 14 8 29 16 W 12 0,0
22.01.2018 14:00:00 7,2 5,2 7,1 4,4 3,4 5,9 18 10 25 14 W 13 0,0
22.01.2018 13:00:00 7,1 5,4 7,1 4,0 3,3 5,9 18 10 29 16 WNW 14 0,0
22.01.2018 12:00:00 6,7 5,2 6,4 3,5 3,2 5,9 18 10 25 14 W 13 0,0
22.01.2018 11:00:00 5,7 5,0 5,4 3,1 3,2 5,9 14 8 22 12 W 9 0,0
22.01.2018 10:00:00 5,4 5,0 4,9 2,9 3,2 5,9 14 8 22 12 W 7 0,0
22.01.2018 09:00:00 4,0 3,8 3,8 2,7 3,2 5,9 14 8 18 10 WSW 0,8 0,0
22.01.2018 08:00:00 3,0 2,8 2,8 2,6 3,2 5,9 11 6 14 8 SSW 0,8 0,0
22.01.2018 07:00:00 2,7 2,3 2,4 2,5 3,2 5,9 14 8 22 12 S 2,0 0,1
22.01.2018 06:00:00 2,3 1,8 2,2 2,5 3,2 5,9 14 8 25 14 SSE 3,1 0,4
22.01.2018 05:00:00 2,2 1,5 2,0 2,5 3,2 5,9 18 10 32 18 SSE 4,7 0,0
22.01.2018 04:00:00 2,2 1,4 1,9 2,4 3,2 5,9 22 12 36 19 SSE 4,8 0,3
22.01.2018 03:00:00 2,2 0,9 1,9 2,5 3,2 5,9 25 14 43 23 SSE 7 0,0
22.01.2018 02:00:00 2,3 0,5 2,0 2,5 3,2 5,9 25 14 36 19 SE 14 0,0
22.01.2018 01:00:00 2,4 0,6 2,1 2,5 3,2 5,9 25 14 40 21 SSE 12 0,0
22.01.2018 00:00:00 2,8 0,9 2,3 2,5 3,2 5,9 18 10 29 16 SSE 11 0,0
21.01.2018 23:00:00 2,8 1,1 2,4 2,4 3,2 5,9 18 10 25 14 SE 10 0,0
21.01.2018 22:00:00 2,8 1,0 2,3 2,4 3,2 5,9 14 8 22 12 SSE 16 0,0
21.01.2018 21:00:00 2,6 0,9 2,1 2,4 3,2 5,9 14 8 22 12 SSE 19 0,0
21.01.2018 20:00:00 2,7 0,6 2,0 2,4 3,2 5,9 14 8 22 12 SSE 29 0,0
21.01.2018 19:00:00 2,7 0,3 1,5 2,6 3,2 6,0 14 8 18 10 SSE 33 0,0
21.01.2018 18:00:00 3,2 0,6 1,4 2,9 3,2 6,0 11 6 14 8 SSE 34 0,0
21.01.2018 17:00:00 3,4 1,2 1,4 3,3 3,1 6,0 11 6 11 6 SSE 35 0,0
21.01.2018 16:00:00 4,7 1,9 3,6 3,4 3,0 6,0 7 4 11 6 S 45 0,0
21.01.2018 15:00:00 5,2 2,2 5,1 3,3 2,9 6,0 7 4 14 8 SW 26 0,0
21.01.2018 14:00:00 5,7 2,4 6,9 3,0 2,9 6,0 7 4 18 10 WSW 28 0,0
21.01.2018 13:00:00 5,3 2,4 6,2 2,4 2,9 6,0 11 6 14 8 WSW 26 0,0
21.01.2018 12:00:00 4,8 1,5 5,0 1,7 2,9 6,0 11 6 14 8 W 33 0,0
21.01.2018 11:00:00 3,0 0,9 2,9 1,5 2,9 6,0 7 4 11 6 W 31 0,0
21.01.2018 10:00:00 1,8 0,2 0,8 1,4 3,0 6,0 7 4 14 8 W 33 0,0
21.01.2018 09:00:00 2,2 0,2 0,9 1,4 3,0 6,0 14 8 22 12 WNW 26 0,0
21.01.2018 08:00:00 2,0 0,3 0,6 1,5 3,0 6,0 14 8 25 14 WNW 31 0,0
21.01.2018 07:00:00 2,3 0,5 0,8 1,5 3,1 6,0 14 8 22 12 WNW 30 0,0
21.01.2018 06:00:00 2,3 0,3 1,0 1,6 3,1 6,0 14 8 22 12 W 39 0,0
21.01.2018 05:00:00 2,2 0,1 0,8 1,6 3,2 6,0 18 10 25 14 WNW 43 0,0
21.01.2018 04:00:00 2,0 0,2 0,6 1,7 3,2 6,0 14 8 25 14 WNW 26 0,0
21.01.2018 03:00:00 1,9 -0,2 -0,1 1,9 3,3 6,0 11 6 18 10 W 41 0,0
21.01.2018 02:00:00 1,1 0,4 -0,8 2,1 3,3 6,0 7 4 11 6 W 10 0,0
21.01.2018 01:00:00 1,1 0,7 -0,9 2,4 3,3 6,0 7 4 11 6 WSW 7 0,0
21.01.2018 00:00:00 1,5 1,1 0,7 2,6 3,3 6,0 4 2 22 12 WNW 5 1,1
20.01.2018 23:00:00 2,1 1,5 1,1 2,7 3,3 6,0 4 2 14 8 SW 9 0,3
20.01.2018 22:00:00 2,5 1,4 1,9 2,8 3,3 6,0 7 4 14 8 W 4,5 0,0
20.01.2018 21:00:00 2,7 2,3 2,2 2,9 3,3 6,0 7 4 14 8 W 3,6 0,0
20.01.2018 20:00:00 2,8 2,2 2,5 2,9 3,3 6,0 0 0 4 2 N 2,8 0,0
20.01.2018 19:00:00 2,9 2,5 2,7 3,0 3,2 6,0 4 2 7 4 SSE 4,7 0,0
20.01.2018 18:00:00 3,0 2,3 2,8 3,0 3,2 6,0 4 2 7 4 SE 4,0 0,0
20.01.2018 17:00:00 3,1 2,1 2,9 3,0 3,1 6,0 7 4 11 6 SSE 6 0,0
20.01.2018 16:00:00 3,1 2,0 3,1 3,0 3,1 6,0 7 4 18 10 S 7 0,0
20.01.2018 15:00:00 2,8 1,6 3,1 2,8 3,0 6,0 14 8 25 14 S 9 0,0
20.01.2018 14:00:00 2,9 1,8 3,1 2,6 3,0 6,0 14 8 25 14 S 7 0,0
20.01.2018 13:00:00 2,6 1,5 2,9 2,3 3,0 6,0 14 8 25 14 S 6 0,0
20.01.2018 12:00:00 2,3 1,3 2,3 1,9 3,0 6,0 14 8 29 16 S 6 0,0
20.01.2018 11:00:00 2,0 0,9 1,8 1,6 3,0 6,0 18 10 29 16 S 8 0,0
20.01.2018 10:00:00 1,5 0,6 0,9 1,5 3,0 6,0 18 10 29 16 S 8 0,0
20.01.2018 09:00:00 1,1 0,3 0,4 1,5 3,1 6,0 22 12 29 16 SSW 6 0,0
20.01.2018 08:00:00 1,4 0,4 0,7 1,5 3,1 6,0 14 8 25 14 S 8 0,0
20.01.2018 07:00:00 1,3 0,3 0,6 1,5 3,1 6,0 22 12 29 16 SSW 7 0,0
20.01.2018 06:00:00 1,2 0,1 0,5 1,5 3,2 6,0 22 12 29 16 SSW 7 0,0
20.01.2018 05:00:00 1,1 0,1 0,1 1,6 3,2 6,0 14 8 25 14 S 12 0,0
20.01.2018 04:00:00 1,2 0,2 0,2 1,7 3,3 6,0 14 8 25 14 S 13 0,1
20.01.2018 03:00:00 1,2 0,2 0,4 1,8 3,3 6,0 18 10 22 12 SSW 12 0,0
20.01.2018 02:00:00 1,2 0,1 0,4 1,9 3,4 6,0 14 8 29 16 SSW 18 0,0
20.01.2018 01:00:00 1,6 0,3 0,9 1,9 3,4 6,0 18 10 29 16 SSW 7 0,2
20.01.2018 00:00:00 1,6 0,1 0,9 2,0 3,4 6,0 14 8 22 12 SSW 30 0,0
19.01.2018 23:00:00 1,8 -0,3 0,9 2,1 3,5 6,0 11 6 22 12 SW 38 0,0
19.01.2018 22:00:00 1,9 0,2 0,7 2,2 3,5 6,0 14 8 25 14 SSW 20 0,0
19.01.2018 21:00:00 2,3 0,4 0,6 2,4 3,6 6,1 14 8 22 12 SW 22 0,0
19.01.2018 20:00:00 2,4 0,5 1,2 2,6 3,6 6,1 14 8 22 12 SSW 25 0,0
19.01.2018 19:00:00 2,6 0,5 1,2 2,8 3,6 6,1 11 6 22 12 S 32 0,0
19.01.2018 18:00:00 3,3 0,4 1,8 3,1 3,6 6,1 14 8 29 16 SW 44 0,0
19.01.2018 17:00:00 4,0 0,9 2,9 3,4 3,5 6,1 18 10 32 18 WSW 31 0,0
19.01.2018 16:00:00 4,5 1,4 3,9 3,6 3,4 6,1 18 10 29 16 WSW 30 0,0
19.01.2018 15:00:00 5,3 1,8 5,5 3,5 3,4 6,1 22 12 32 18 WSW 25 0,0
19.01.2018 14:00:00 5,1 1,7 5,0 3,3 3,3 6,1 22 12 32 18 WSW 27 0,0
19.01.2018 13:00:00 5,0 1,8 4,5 2,9 3,3 6,1 14 8 29 16 WSW 28 0,0
19.01.2018 12:00:00 4,0 1,7 3,7 2,5 3,3 6,1 25 14 36 19 WSW 11 0,0
19.01.2018 11:00:00 3,0 1,7 2,5 2,3 3,3 6,1 11 6 29 16 WSW 14 0,1
19.01.2018 10:00:00 2,8 1,6 2,4 2,1 3,3 6,1 7 4 29 16 WSW 10 0,3
19.01.2018 09:00:00 2,4 1,4 1,7 2,0 3,4 6,1 11 6 18 10 SW 30 0,1
19.01.2018 08:00:00 2,2 1,2 1,8 1,9 3,4 6,1 18 10 29 16 W 6 0,5
19.01.2018 07:00:00 1,6 0,9 0,8 1,9 3,4 6,1 11 6 14 8 SSW 11 0,2
19.01.2018 06:00:00 1,5 1,1 1,2 1,8 3,5 6,1 11 6 22 12 SW 3,0 2,0
19.01.2018 05:00:00 1,3 0,8 0,0 1,9 3,5 6,1 7 4 18 10 SW 20 0,0
19.01.2018 04:00:00 1,9 1,0 1,4 1,9 3,6 6,1 14 8 22 12 SW 11 0,3
19.01.2018 03:00:00 1,6 0,8 0,6 1,9 3,7 6,1 7 4 18 10 S 7 0,3
19.01.2018 02:00:00 1,0 0,3 -0,4 1,9 3,8 6,1 11 6 14 8 SSW 9 0,0
19.01.2018 01:00:00 0,8 0,2 -1,1 2,0 3,8 6,1 4 2 11 6 S 12 0,0
19.01.2018 00:00:00 1,1 0,4 -0,8 2,2 3,9 6,1 7 4 11 6 S 16 0,0
18.01.2018 23:00:00 0,8 -0,2 -1,4 2,4 4,0 6,1 7 4 14 8 S 18 0,0
18.01.2018 22:00:00 1,6 0,2 -1,5 2,7 4,0 6,1 7 4 11 6 W 19 0,0
18.01.2018 21:00:00 2,3 0,6 0,2 3,0 4,1 6,1 7 4 11 6 WSW 18 0,0
18.01.2018 20:00:00 2,3 1,0 0,5 3,3 4,1 6,2 4 2 14 8 WSW 22 0,0
18.01.2018 19:00:00 3,1 1,4 2,0 3,6 4,1 6,2 11 6 47 25 W 33 0,7
18.01.2018 18:00:00 3,8 1,5 3,1 3,7 4,1 6,2 25 14 43 23 W 16 0,0
18.01.2018 17:00:00 3,8 1,8 2,9 4,0 4,1 6,1 22 12 36 19 W 23 0,0
18.01.2018 16:00:00 4,4 1,9 3,9 4,2 4,0 6,1 22 12 40 21 W 25 0,0
18.01.2018 15:00:00 4,8 2,0 4,4 4,3 4,0 6,2 22 12 50 27 W 36 0,0
18.01.2018 14:00:00 5,2 2,4 5,0 4,2 3,9 6,2 36 19 72 39 WNW 14 0,0
18.01.2018 13:00:00 5,2 2,3 4,7 4,1 3,9 6,2 47 25 86 47 WNW 21 0,0
18.01.2018 12:00:00 4,5 1,8 4,2 4,1 3,8 6,2 61 33 108 58 WNW 24 0,0
18.01.2018 11:00:00 5,6 3,9 4,9 4,0 3,8 6,2 43 23 90 49 WSW 5 0,0
18.01.2018 10:00:00 6,7 2,0 6,1 3,9 3,7 6,3 50 27 86 47 WSW 13 0,0

tt = Température de l'air
td = dewpoint
tt 5cm = Température de l'air 5cm
tt -5cm = Température de l'air -5cm
tt -20cm = Température de l'air -20cm
tt -100cm = Température de l'air -100cm
ff = Vitesse du vent
fx = gusts
dd = Direction du vent
vv = visibility
rr = Quantités de précipitations

stations d'obs. à proximité